x

Mid Gulf - 180 Nm South Of Southwest Pass, La (42001) Wave Buoy

6:50am - Mon 22nd Dec 2014 All times are UTC.

  • Sig Wave height 2.3ft
  • Peak Period 7s
  • Average Period 5s
  • Wind
    13mph
  • Sea Temp 79°f
  • Air Temp 76°f
  • Sea Pressure 1013.7mb

More Historic Weather Station data

Upgrade to MSW Pro to gain access to the past 30 days of data for over 8000 Wavebouys and Weather Stations around the globe.

Join Pro

Comparision Forecast

View Surf forecast
   
Mon 12/22 6:50am 2.5ft 7s 5s 13
mph
1013.7mb 79f 76f
5:50am 2.5ft 6s 5s 13 16 mph 1013.8mb 79f 76f
4:50am 2.5ft 6s 5s 11 16 mph 1014.2mb 79f 76f
3:50am 2.5ft 6s 5s 11 16 mph 1014.4mb 80f 76f
2:50am 2.5ft 6s 5s 11 13 mph 1014mb 80f 76f
1:50am 3ft 7s 6s 9 13 mph 1014mb 80f 77f
12:50am 2.5ft 7s 6s 9 11 mph 1013.7mb 80f 76f
Sun 12/21 11:50pm 3ft 7s 6s 9 11 mph 1013.3mb 79f 76f
10:50pm 3ft 7s 6s 2 4 mph 1013.1mb 79f 76f
9:50pm 3ft 6s 6s 4 9 mph 1013.2mb 79f 77f
8:50pm 3.5ft 7s 6s 7 9 mph 1013.7mb 80f 77f
7:50pm 3ft 7s 6s 7 9 mph 1014mb 80f 77f
6:50pm 3.5ft 6s 6s 4 7 mph 1014.9mb 80f 77f
5:50pm 3ft 7s 6s 4 7 mph 1016.2mb 80f 77f
4:50pm 3.5ft 7s 6s 7 9 mph 1017.1mb 80f 77f
3:50pm 3.5ft 7s 6s 9 11 mph 1017.4mb 80f 76f
2:50pm 3.5ft 8s 6s 11 13 mph 1017.5mb 80f 76f
1:50pm 3.5ft 7s 6s 11 13 mph 1017.1mb 80f 76f
12:50pm 3.5ft 8s 6s 2 4 mph 1016.5mb 80f 77f
11:50am 3.5ft 8s 6s 4 7 mph 1016.1mb 80f 76f
10:50am 3.5ft 7s 6s 7 11 mph 1015.9mb 80f 76f
9:50am 3.5ft 8s 6s 7 9 mph 1015.7mb 79f 76f
8:50am 3.5ft 7s 6s 9 11 mph 1016mb 79f 76f
7:50am 3.5ft 7s 6s 9 11 mph 1016.4mb 79f 76f
6:50am 2.5ft 7s 6s 9 13 mph 1016.9mb 80f 77f
5:50am 2.5ft 7s 6s 2 4 mph 1017.1mb 80f 77f
4:50am 1.6ft 7s 5s  -  2 mph 1017.4mb 80f 77f
3:50am 1.3ft 5s 5s 4
mph
1017.4mb 80f 77f
2:50am 1.6ft 5s 5s 4 7 mph 1017.2mb 80f 77f
1:50am 1.6ft 6s 5s 7 9 mph 1016.9mb 80f 77f
12:50am 1.6ft 6s 5s 7 9 mph 1016.7mb 81f 77f
Sat 12/20 11:50pm 1.3ft 6s 5s 7 9 mph 1016mb 80f 76f
10:50pm 1.6ft 6s 5s 7 9 mph 1015.7mb 80f 77f
9:50pm 1.6ft 6s 5s 9 11 mph 1015.5mb 80f 76f
8:50pm 1.6ft 6s 5s 7 9 mph 1015.3mb 80f 77f
7:50pm 1.6ft 6s 5s 7 9 mph 1015.7mb 80f 76f
6:50pm 1.3ft 6s 4s 7 9 mph 1016mb 80f 76f
5:50pm 1.3ft 6s 4s 9 11 mph 1017.1mb 80f 76f
4:50pm 1.3ft 7s 5s 9 11 mph 1017.8mb 80f 76f
3:50pm 1.3ft 4s 4s 9 11 mph 1018mb 80f 76f
2:50pm 1.6ft 5s 4s 4
mph
1017.8mb 80f 76f
1:50pm 1.6ft 5s 4s 4 9 mph 1017.4mb 80f 76f
12:50pm 1.6ft 5s 4s 7 9 mph 1017mb 80f 76f
11:50am 1.6ft 4s 4s 9 11 mph 1016.4mb 80f 76f
10:50am 1.6ft 5s 4s 9 13 mph 1015.8mb 80f 76f
9:50am 2ft 5s 4s 9 11 mph 1015.6mb 80f 76f
8:50am 1.6ft 5s 4s 9 13 mph 1015.7mb 80f 76f
7:50am 1.6ft 5s 4s 9 11 mph 1015.8mb 80f 76f
6:50am 1.6ft 5s 4s 11 13 mph 1015.8mb 80f 76f
5:50am 2ft 6s 4s 11 13 mph 1016.1mb 80f 76f
4:50am 2ft 5s 4s 9 13 mph 1016.6mb 80f 76f
3:50am 1.6ft 5s 4s 9 11 mph 1016.7mb 80f 76f
2:50am 2ft 6s 4s 9 11 mph 1016.6mb 80f 77f
1:50am 2ft 6s 4s 9 13 mph 1016.4mb 80f 77f
12:50am 2ft 5s 4s 9 11 mph 1015.8mb 80f 77f
Fri 12/19 11:50pm 2.5ft 5s 4s 11 16 mph 1015.6mb 80f 77f
10:50pm 2.5ft 5s 4s 11 16 mph 1015.2mb 80f 77f
9:50pm 2.5ft 6s 4s 11
mph
1015mb 80f 77f
8:50pm 2.5ft 5s 4s 11 13 mph 1015mb 81f 77f
7:50pm 2.5ft 4s 4s 13 18 mph 1015.4mb 81f 78f
6:50pm 2.5ft 3s 3s 13 18 mph 1015.9mb 81f 77f
5:50pm 2ft 3s 3s 13 18 mph 1017mb 81f 78f
4:50pm 2ft 3s 3s 18 20 mph 1017.7mb 81f 78f
3:50pm 1.6ft 3s 3s 13 18 mph 1018.3mb 80f 77f
2:50pm 1.6ft 3s 3s 13 18 mph 1017.8mb 80f 77f
1:50pm 1.3ft 5s 3s 16 18 mph 1017.1mb 80f 77f
12:50pm 1.3ft 5s 3s 16 20 mph 1016.5mb 80f 76f
11:50am 1.3ft 5s 4s 13 16 mph 1016.5mb 80f 76f
10:50am 1.3ft 4s 4s 13 18 mph 1016.5mb 80f 76f
9:50am 1.3ft 5s 4s 11 16 mph 1016.8mb 80f 76f
8:50am 1.3ft 4s 4s 9 11 mph 1017.4mb 80f 75f
7:50am 1.3ft 5s 4s 11 16 mph 1017.6mb 80f 76f
6:50am 1.3ft 4s 4s 4 7 mph 1018.4mb 80f 76f
5:50am 1.3ft 4s 4s 9 11 mph 1018.7mb 80f 76f
4:50am 1.3ft 5s 4s 7 9 mph 1019.4mb 80f 76f
3:50am 1.3ft 5s 4s 7 9 mph 1019.5mb 80f 76f
2:50am 1.3ft 5s 4s 7 9 mph 1019.3mb 80f 76f
1:50am 1.3ft 3s 4s 7 9 mph 1019mb 80f 76f
12:50am 1.3ft 5s 4s 7 11 mph 1018.5mb 80f 75f
Thu 12/18 11:50pm 1.3ft 5s 4s 7 9 mph 1018.1mb 80f 75f
10:50pm 1.3ft 4s 4s 4 7 mph 1018.2mb 80f 74f
9:50pm 1.3ft 5s 4s 4 7 mph 1018.1mb 80f 74f
8:50pm 1.3ft 5s 4s 4 7 mph 1018.5mb 80f 75f
7:50pm 1.3ft 5s 4s 4 7 mph 1018.7mb 80f 76f
6:50pm 1.3ft 5s 4s 7 11 mph 1019.5mb 80f 76f
5:50pm 1.3ft 5s 4s 7 9 mph 1020.6mb 80f 76f
4:50pm 1.3ft 5s 4s 7 11 mph 1021.3mb 80f 75f
3:50pm 1.3ft 6s 4s 7 9 mph 1021.9mb 80f 76f
2:50pm 1.3ft 5s 4s 11 13 mph 1021.3mb 80f 75f
1:50pm 1.6ft 5s 4s 11 13 mph 1020.6mb 80f 76f
12:50pm 1.6ft 5s 4s 9 11 mph 1020.1mb 80f 75f
11:50am 1.6ft 5s 4s 9 13 mph 1019.8mb 80f 75f
10:50am 1.6ft 5s 3s 11 16 mph 1019.3mb 80f 75f
9:50am 1.6ft 5s 4s 9 13 mph 1019.5mb 80f 75f
8:50am 1.6ft 5s 4s 11 16 mph 1019.5mb 80f 75f